sensor_id;sensor_type;location;lat;lon;timestamp;temperature;humidity
3816;DHT22;1923;48.154;11.536;2023-05-10T00:02:08;15.10;99.90
3816;DHT22;1923;48.154;11.536;2023-05-10T00:04:36;15.10;99.90
3816;DHT22;1923;48.154;11.536;2023-05-10T00:07:04;15.10;99.90
3816;DHT22;1923;48.154;11.536;2023-05-10T00:09:32;15.10;99.90
3816;DHT22;1923;48.154;11.536;2023-05-10T00:12:00;15.20;99.90
3816;DHT22;1923;48.154;11.536;2023-05-10T00:14:30;15.20;99.90
3816;DHT22;1923;48.154;11.536;2023-05-10T00:16:58;15.20;99.90
3816;DHT22;1923;48.154;11.536;2023-05-10T00:19:26;15.10;99.90
3816;DHT22;1923;48.154;11.536;2023-05-10T00:21:54;15.20;99.90
3816;DHT22;1923;48.154;11.536;2023-05-10T00:24:22;15.20;99.90
3816;DHT22;1923;48.154;11.536;2023-05-10T00:26:50;15.20;99.90
3816;DHT22;1923;48.154;11.536;2023-05-10T00:29:18;15.20;99.90
3816;DHT22;1923;48.154;11.536;2023-05-10T00:31:47;15.10;99.90
3816;DHT22;1923;48.154;11.536;2023-05-10T00:34:15;15.00;99.90
3816;DHT22;1923;48.154;11.536;2023-05-10T00:36:45;15.00;99.90
3816;DHT22;1923;48.154;11.536;2023-05-10T00:39:13;15.00;99.90
3816;DHT22;1923;48.154;11.536;2023-05-10T00:41:41;15.10;99.90
3816;DHT22;1923;48.154;11.536;2023-05-10T00:44:09;15.00;99.90
3816;DHT22;1923;48.154;11.536;2023-05-10T00:46:37;14.90;99.90
3816;DHT22;1923;48.154;11.536;2023-05-10T00:49:06;14.90;99.90
3816;DHT22;1923;48.154;11.536;2023-05-10T00:51:35;14.80;99.90
3816;DHT22;1923;48.154;11.536;2023-05-10T00:54:03;14.90;99.90
3816;DHT22;1923;48.154;11.536;2023-05-10T00:56:32;14.90;99.90
3816;DHT22;1923;48.154;11.536;2023-05-10T00:59:00;14.90;99.90
3816;DHT22;1923;48.154;11.536;2023-05-10T01:01:28;14.80;99.90
3816;DHT22;1923;48.154;11.536;2023-05-10T01:03:58;14.80;99.90
3816;DHT22;1923;48.154;11.536;2023-05-10T01:06:27;14.70;99.90
3816;DHT22;1923;48.154;11.536;2023-05-10T01:08:56;14.70;99.90
3816;DHT22;1923;48.154;11.536;2023-05-10T01:11:24;14.80;99.90
3816;DHT22;1923;48.154;11.536;2023-05-10T01:13:55;14.90;99.90
3816;DHT22;1923;48.154;11.536;2023-05-10T01:16:24;14.80;99.90
3816;DHT22;1923;48.154;11.536;2023-05-10T01:18:52;14.70;99.90
3816;DHT22;1923;48.154;11.536;2023-05-10T01:21:27;14.70;99.90
3816;DHT22;1923;48.154;11.536;2023-05-10T01:24:22;14.70;99.90
3816;DHT22;1923;48.154;11.536;2023-05-10T01:27:07;14.70;99.90
3816;DHT22;1923;48.154;11.536;2023-05-10T01:30:15;14.70;99.90
3816;DHT22;1923;48.154;11.536;2023-05-10T01:32:56;14.80;99.90
3816;DHT22;1923;48.154;11.536;2023-05-10T01:35:34;14.80;99.90
3816;DHT22;1923;48.154;11.536;2023-05-10T01:38:09;14.70;99.90
3816;DHT22;1923;48.154;11.536;2023-05-10T01:40:42;14.70;99.90
3816;DHT22;1923;48.154;11.536;2023-05-10T01:43:22;14.60;99.90
3816;DHT22;1923;48.154;11.536;2023-05-10T01:46:00;14.70;99.90
3816;DHT22;1923;48.154;11.536;2023-05-10T01:48:41;14.70;99.90
3816;DHT22;1923;48.154;11.536;2023-05-10T01:51:15;14.80;99.90
3816;DHT22;1923;48.154;11.536;2023-05-10T01:53:45;14.70;99.90
3816;DHT22;1923;48.154;11.536;2023-05-10T01:56:14;14.80;99.90
3816;DHT22;1923;48.154;11.536;2023-05-10T01:58:44;14.70;99.90
3816;DHT22;1923;48.154;11.536;2023-05-10T02:01:15;14.70;99.90
3816;DHT22;1923;48.154;11.536;2023-05-10T02:03:45;14.70;99.90
3816;DHT22;1923;48.154;11.536;2023-05-10T02:06:14;14.80;99.90
3816;DHT22;1923;48.154;11.536;2023-05-10T02:08:45;14.70;99.90
3816;DHT22;1923;48.154;11.536;2023-05-10T02:11:14;14.80;99.90
3816;DHT22;1923;48.154;11.536;2023-05-10T02:13:43;14.80;99.90
3816;DHT22;1923;48.154;11.536;2023-05-10T02:16:12;14.70;99.90
3816;DHT22;1923;48.154;11.536;2023-05-10T02:18:41;14.70;99.90
3816;DHT22;1923;48.154;11.536;2023-05-10T02:21:11;14.60;99.90
3816;DHT22;1923;48.154;11.536;2023-05-10T02:23:41;14.60;99.90
3816;DHT22;1923;48.154;11.536;2023-05-10T02:26:11;14.70;99.90
3816;DHT22;1923;48.154;11.536;2023-05-10T02:28:40;14.70;99.90
3816;DHT22;1923;48.154;11.536;2023-05-10T02:31:10;14.60;99.90
3816;DHT22;1923;48.154;11.536;2023-05-10T02:33:39;14.70;99.90
3816;DHT22;1923;48.154;11.536;2023-05-10T02:36:10;14.70;99.90
3816;DHT22;1923;48.154;11.536;2023-05-10T02:38:40;14.60;99.90
3816;DHT22;1923;48.154;11.536;2023-05-10T02:41:09;14.50;99.90
3816;DHT22;1923;48.154;11.536;2023-05-10T02:43:40;14.50;99.90
3816;DHT22;1923;48.154;11.536;2023-05-10T02:46:08;14.50;99.90
3816;DHT22;1923;48.154;11.536;2023-05-10T02:48:36;14.60;99.90
3816;DHT22;1923;48.154;11.536;2023-05-10T02:51:07;14.60;99.90
3816;DHT22;1923;48.154;11.536;2023-05-10T02:53:38;14.60;99.90
3816;DHT22;1923;48.154;11.536;2023-05-10T02:56:12;14.50;99.90
3816;DHT22;1923;48.154;11.536;2023-05-10T02:58:41;14.60;99.90
3816;DHT22;1923;48.154;11.536;2023-05-10T03:01:10;14.60;99.90
3816;DHT22;1923;48.154;11.536;2023-05-10T03:03:38;14.60;99.90
3816;DHT22;1923;48.154;11.536;2023-05-10T03:06:06;14.60;99.90
3816;DHT22;1923;48.154;11.536;2023-05-10T03:08:34;14.60;99.90
3816;DHT22;1923;48.154;11.536;2023-05-10T03:11:16;14.60;99.90
3816;DHT22;1923;48.154;11.536;2023-05-10T03:14:02;14.60;99.90
3816;DHT22;1923;48.154;11.536;2023-05-10T03:16:40;14.70;99.90
3816;DHT22;1923;48.154;11.536;2023-05-10T03:19:16;14.60;99.90
3816;DHT22;1923;48.154;11.536;2023-05-10T03:21:51;14.60;99.90
3816;DHT22;1923;48.154;11.536;2023-05-10T03:24:21;14.60;99.90
3816;DHT22;1923;48.154;11.536;2023-05-10T03:26:56;14.60;99.90
3816;DHT22;1923;48.154;11.536;2023-05-10T03:29:25;14.60;99.90
3816;DHT22;1923;48.154;11.536;2023-05-10T03:31:54;14.50;99.90
3816;DHT22;1923;48.154;11.536;2023-05-10T03:34:26;14.40;99.90
3816;DHT22;1923;48.154;11.536;2023-05-10T03:36:54;14.50;99.90
3816;DHT22;1923;48.154;11.536;2023-05-10T03:39:22;14.50;99.90
3816;DHT22;1923;48.154;11.536;2023-05-10T03:41:52;14.50;99.90
3816;DHT22;1923;48.154;11.536;2023-05-10T03:44:21;14.50;99.90
3816;DHT22;1923;48.154;11.536;2023-05-10T03:46:49;14.50;99.90
3816;DHT22;1923;48.154;11.536;2023-05-10T03:49:16;14.50;99.90
3816;DHT22;1923;48.154;11.536;2023-05-10T03:51:45;14.50;99.90
3816;DHT22;1923;48.154;11.536;2023-05-10T03:54:12;14.60;99.90
3816;DHT22;1923;48.154;11.536;2023-05-10T03:56:41;14.50;99.90
3816;DHT22;1923;48.154;11.536;2023-05-10T03:59:10;14.40;99.90
3816;DHT22;1923;48.154;11.536;2023-05-10T04:01:38;14.30;99.90
3816;DHT22;1923;48.154;11.536;2023-05-10T04:04:06;14.30;99.90
3816;DHT22;1923;48.154;11.536;2023-05-10T04:06:34;14.30;99.90
3816;DHT22;1923;48.154;11.536;2023-05-10T04:09:02;14.30;99.90
3816;DHT22;1923;48.154;11.536;2023-05-10T04:11:31;14.30;99.90
3816;DHT22;1923;48.154;11.536;2023-05-10T04:13:59;14.40;99.90
3816;DHT22;1923;48.154;11.536;2023-05-10T04:16:29;14.40;99.90
3816;DHT22;1923;48.154;11.536;2023-05-10T04:18:57;14.40;99.90
3816;DHT22;1923;48.154;11.536;2023-05-10T04:21:26;14.30;99.90
3816;DHT22;1923;48.154;11.536;2023-05-10T04:23:54;14.30;99.90
3816;DHT22;1923;48.154;11.536;2023-05-10T04:26:22;14.30;99.90
3816;DHT22;1923;48.154;11.536;2023-05-10T04:28:51;14.20;99.90
3816;DHT22;1923;48.154;11.536;2023-05-10T04:31:19;14.30;99.90
3816;DHT22;1923;48.154;11.536;2023-05-10T04:33:49;14.30;99.90
3816;DHT22;1923;48.154;11.536;2023-05-10T04:36:17;14.30;99.90
3816;DHT22;1923;48.154;11.536;2023-05-10T04:38:45;14.30;99.90
3816;DHT22;1923;48.154;11.536;2023-05-10T04:41:13;14.30;99.90
3816;DHT22;1923;48.154;11.536;2023-05-10T04:43:41;14.20;99.90
3816;DHT22;1923;48.154;11.536;2023-05-10T04:46:09;14.30;99.90
3816;DHT22;1923;48.154;11.536;2023-05-10T04:48:37;14.30;99.90
3816;DHT22;1923;48.154;11.536;2023-05-10T04:51:07;14.30;99.90
3816;DHT22;1923;48.154;11.536;2023-05-10T04:53:35;14.20;99.90
3816;DHT22;1923;48.154;11.536;2023-05-10T04:56:04;14.20;99.90
3816;DHT22;1923;48.154;11.536;2023-05-10T04:58:32;14.30;99.90
3816;DHT22;1923;48.154;11.536;2023-05-10T05:01:05;14.30;99.90
3816;DHT22;1923;48.154;11.536;2023-05-10T05:03:33;14.30;99.90
3816;DHT22;1923;48.154;11.536;2023-05-10T05:06:02;14.30;99.90
3816;DHT22;1923;48.154;11.536;2023-05-10T05:08:32;14.30;99.90
3816;DHT22;1923;48.154;11.536;2023-05-10T05:11:00;14.20;99.90
3816;DHT22;1923;48.154;11.536;2023-05-10T05:13:28;14.10;99.90
3816;DHT22;1923;48.154;11.536;2023-05-10T05:15:56;14.10;99.90
3816;DHT22;1923;48.154;11.536;2023-05-10T05:18:24;14.20;99.90
3816;DHT22;1923;48.154;11.536;2023-05-10T05:20:52;14.20;99.90
3816;DHT22;1923;48.154;11.536;2023-05-10T05:23:20;14.10;99.90
3816;DHT22;1923;48.154;11.536;2023-05-10T05:25:53;14.20;99.90
3816;DHT22;1923;48.154;11.536;2023-05-10T05:28:21;14.20;99.90
3816;DHT22;1923;48.154;11.536;2023-05-10T05:30:49;14.10;99.90
3816;DHT22;1923;48.154;11.536;2023-05-10T05:33:17;14.00;99.90
3816;DHT22;1923;48.154;11.536;2023-05-10T05:35:45;14.00;99.90
3816;DHT22;1923;48.154;11.536;2023-05-10T05:38:17;13.80;99.90
3816;DHT22;1923;48.154;11.536;2023-05-10T05:40:45;13.70;99.90
3816;DHT22;1923;48.154;11.536;2023-05-10T05:43:14;13.60;99.90
3816;DHT22;1923;48.154;11.536;2023-05-10T05:45:42;13.50;99.90
3816;DHT22;1923;48.154;11.536;2023-05-10T05:48:10;13.30;99.90
3816;DHT22;1923;48.154;11.536;2023-05-10T05:50:39;13.30;99.90
3816;DHT22;1923;48.154;11.536;2023-05-10T05:53:07;13.40;99.90
3816;DHT22;1923;48.154;11.536;2023-05-10T05:55:35;13.40;99.90
3816;DHT22;1923;48.154;11.536;2023-05-10T05:58:03;13.60;99.90
3816;DHT22;1923;48.154;11.536;2023-05-10T06:00:32;13.60;99.90
3816;DHT22;1923;48.154;11.536;2023-05-10T06:03:00;13.70;99.90
3816;DHT22;1923;48.154;11.536;2023-05-10T06:05:28;13.80;99.90
3816;DHT22;1923;48.154;11.536;2023-05-10T06:07:56;13.80;99.90
3816;DHT22;1923;48.154;11.536;2023-05-10T06:10:27;13.80;99.90
3816;DHT22;1923;48.154;11.536;2023-05-10T06:12:55;13.90;99.90
3816;DHT22;1923;48.154;11.536;2023-05-10T06:15:23;13.90;99.90
3816;DHT22;1923;48.154;11.536;2023-05-10T06:17:52;13.90;99.90
3816;DHT22;1923;48.154;11.536;2023-05-10T06:20:20;14.00;99.90
3816;DHT22;1923;48.154;11.536;2023-05-10T06:22:48;14.10;99.90
3816;DHT22;1923;48.154;11.536;2023-05-10T06:25:16;14.20;99.90
3816;DHT22;1923;48.154;11.536;2023-05-10T06:27:45;14.30;99.90
3816;DHT22;1923;48.154;11.536;2023-05-10T06:30:19;14.40;99.90
3816;DHT22;1923;48.154;11.536;2023-05-10T06:32:49;14.50;99.90
3816;DHT22;1923;48.154;11.536;2023-05-10T06:35:19;14.60;99.90
3816;DHT22;1923;48.154;11.536;2023-05-10T06:37:48;14.70;99.90
3816;DHT22;1923;48.154;11.536;2023-05-10T06:40:16;14.70;99.90
3816;DHT22;1923;48.154;11.536;2023-05-10T06:42:44;14.70;99.90
3816;DHT22;1923;48.154;11.536;2023-05-10T06:45:13;14.80;99.90
3816;DHT22;1923;48.154;11.536;2023-05-10T06:47:42;14.80;99.90
3816;DHT22;1923;48.154;11.536;2023-05-10T06:50:10;14.90;99.90
3816;DHT22;1923;48.154;11.536;2023-05-10T06:52:40;15.00;99.90
3816;DHT22;1923;48.154;11.536;2023-05-10T06:55:10;15.20;99.90
3816;DHT22;1923;48.154;11.536;2023-05-10T06:57:38;15.20;99.90
3816;DHT22;1923;48.154;11.536;2023-05-10T07:00:06;15.30;99.90
3816;DHT22;1923;48.154;11.536;2023-05-10T07:02:36;15.30;99.90
3816;DHT22;1923;48.154;11.536;2023-05-10T07:05:05;15.30;99.90
3816;DHT22;1923;48.154;11.536;2023-05-10T07:07:33;15.30;99.90
3816;DHT22;1923;48.154;11.536;2023-05-10T07:10:03;15.30;99.90
3816;DHT22;1923;48.154;11.536;2023-05-10T07:12:31;15.50;99.90
3816;DHT22;1923;48.154;11.536;2023-05-10T07:14:59;15.50;99.90
3816;DHT22;1923;48.154;11.536;2023-05-10T07:17:27;15.50;99.90
3816;DHT22;1923;48.154;11.536;2023-05-10T07:19:55;15.60;99.90
3816;DHT22;1923;48.154;11.536;2023-05-10T07:22:23;15.90;99.90
3816;DHT22;1923;48.154;11.536;2023-05-10T07:24:51;16.10;99.90
3816;DHT22;1923;48.154;11.536;2023-05-10T07:27:20;16.40;99.90
3816;DHT22;1923;48.154;11.536;2023-05-10T07:29:48;16.50;99.90
3816;DHT22;1923;48.154;11.536;2023-05-10T07:32:17;16.70;99.90
3816;DHT22;1923;48.154;11.536;2023-05-10T07:34:45;16.70;99.90
3816;DHT22;1923;48.154;11.536;2023-05-10T07:37:13;16.60;99.90
3816;DHT22;1923;48.154;11.536;2023-05-10T07:39:41;16.70;99.90
3816;DHT22;1923;48.154;11.536;2023-05-10T07:42:09;16.80;99.90
3816;DHT22;1923;48.154;11.536;2023-05-10T07:44:39;16.90;99.90
3816;DHT22;1923;48.154;11.536;2023-05-10T07:47:07;17.10;99.90
3816;DHT22;1923;48.154;11.536;2023-05-10T07:49:35;17.40;99.90
3816;DHT22;1923;48.154;11.536;2023-05-10T07:52:03;17.90;99.90
3816;DHT22;1923;48.154;11.536;2023-05-10T07:54:31;18.50;99.90
3816;DHT22;1923;48.154;11.536;2023-05-10T07:57:00;19.00;99.90
3816;DHT22;1923;48.154;11.536;2023-05-10T07:59:28;19.30;99.90
3816;DHT22;1923;48.154;11.536;2023-05-10T08:01:57;19.70;99.90
3816;DHT22;1923;48.154;11.536;2023-05-10T08:04:26;19.70;99.90
3816;DHT22;1923;48.154;11.536;2023-05-10T08:06:54;19.90;99.90
3816;DHT22;1923;48.154;11.536;2023-05-10T08:09:22;19.90;99.90
3816;DHT22;1923;48.154;11.536;2023-05-10T08:11:51;19.80;99.90
3816;DHT22;1923;48.154;11.536;2023-05-10T08:14:19;19.50;99.90
3816;DHT22;1923;48.154;11.536;2023-05-10T08:16:47;19.10;99.90
3816;DHT22;1923;48.154;11.536;2023-05-10T08:19:16;19.10;99.90
3816;DHT22;1923;48.154;11.536;2023-05-10T08:21:46;19.10;99.90
3816;DHT22;1923;48.154;11.536;2023-05-10T08:24:14;19.40;99.90
3816;DHT22;1923;48.154;11.536;2023-05-10T08:26:42;19.60;99.90
3816;DHT22;1923;48.154;11.536;2023-05-10T08:29:10;19.60;99.90
3816;DHT22;1923;48.154;11.536;2023-05-10T08:31:37;19.50;99.90
3816;DHT22;1923;48.154;11.536;2023-05-10T08:34:06;19.10;99.90
3816;DHT22;1923;48.154;11.536;2023-05-10T08:36:35;18.50;99.90
3816;DHT22;1923;48.154;11.536;2023-05-10T08:39:03;18.10;99.90
3816;DHT22;1923;48.154;11.536;2023-05-10T08:41:44;17.90;99.90
3816;DHT22;1923;48.154;11.536;2023-05-10T08:44:12;17.60;99.90
3816;DHT22;1923;48.154;11.536;2023-05-10T08:46:43;17.30;99.90
3816;DHT22;1923;48.154;11.536;2023-05-10T08:49:17;17.30;99.90
3816;DHT22;1923;48.154;11.536;2023-05-10T08:51:50;17.30;99.90
3816;DHT22;1923;48.154;11.536;2023-05-10T08:54:19;17.30;99.90
3816;DHT22;1923;48.154;11.536;2023-05-10T08:56:47;17.30;99.90
3816;DHT22;1923;48.154;11.536;2023-05-10T08:59:15;17.20;99.90
3816;DHT22;1923;48.154;11.536;2023-05-10T09:01:44;17.20;99.90
3816;DHT22;1923;48.154;11.536;2023-05-10T09:04:13;17.00;99.90
3816;DHT22;1923;48.154;11.536;2023-05-10T09:06:41;17.00;99.90
3816;DHT22;1923;48.154;11.536;2023-05-10T09:09:15;17.00;99.90
3816;DHT22;1923;48.154;11.536;2023-05-10T09:11:46;17.20;99.90
3816;DHT22;1923;48.154;11.536;2023-05-10T09:14:15;17.80;99.90
3816;DHT22;1923;48.154;11.536;2023-05-10T09:16:43;18.80;99.90
3816;DHT22;1923;48.154;11.536;2023-05-10T09:19:12;19.30;99.90
3816;DHT22;1923;48.154;11.536;2023-05-10T09:21:40;19.70;99.90
3816;DHT22;1923;48.154;11.536;2023-05-10T09:24:11;19.60;99.90
3816;DHT22;1923;48.154;11.536;2023-05-10T09:26:46;19.20;99.90
3816;DHT22;1923;48.154;11.536;2023-05-10T09:29:15;19.00;99.90
3816;DHT22;1923;48.154;11.536;2023-05-10T09:31:45;18.70;99.90
3816;DHT22;1923;48.154;11.536;2023-05-10T09:34:18;18.70;99.90
3816;DHT22;1923;48.154;11.536;2023-05-10T09:36:55;18.70;99.90
3816;DHT22;1923;48.154;11.536;2023-05-10T09:39:32;18.50;99.90
3816;DHT22;1923;48.154;11.536;2023-05-10T09:42:02;18.80;99.90
3816;DHT22;1923;48.154;11.536;2023-05-10T09:44:31;19.00;99.90
3816;DHT22;1923;48.154;11.536;2023-05-10T09:47:00;19.10;99.90
3816;DHT22;1923;48.154;11.536;2023-05-10T09:49:28;19.20;99.90
3816;DHT22;1923;48.154;11.536;2023-05-10T09:52:01;19.30;99.90
3816;DHT22;1923;48.154;11.536;2023-05-10T09:54:31;20.40;99.90
3816;DHT22;1923;48.154;11.536;2023-05-10T09:57:00;21.20;99.90
3816;DHT22;1923;48.154;11.536;2023-05-10T09:59:29;21.50;99.90
3816;DHT22;1923;48.154;11.536;2023-05-10T10:01:58;21.50;99.90
3816;DHT22;1923;48.154;11.536;2023-05-10T10:04:27;21.50;99.90
3816;DHT22;1923;48.154;11.536;2023-05-10T10:07:00;21.30;99.90
3816;DHT22;1923;48.154;11.536;2023-05-10T10:09:30;21.10;99.90
3816;DHT22;1923;48.154;11.536;2023-05-10T10:11:59;21.00;99.90
3816;DHT22;1923;48.154;11.536;2023-05-10T10:14:29;21.10;99.90
3816;DHT22;1923;48.154;11.536;2023-05-10T10:16:57;21.20;99.90
3816;DHT22;1923;48.154;11.536;2023-05-10T10:19:33;21.40;99.90
3816;DHT22;1923;48.154;11.536;2023-05-10T10:22:02;21.40;99.90
3816;DHT22;1923;48.154;11.536;2023-05-10T10:24:32;21.00;99.90
3816;DHT22;1923;48.154;11.536;2023-05-10T10:27:07;20.60;99.90
3816;DHT22;1923;48.154;11.536;2023-05-10T10:29:41;20.40;99.90
3816;DHT22;1923;48.154;11.536;2023-05-10T10:32:21;20.30;99.90
3816;DHT22;1923;48.154;11.536;2023-05-10T10:34:54;20.70;99.90
3816;DHT22;1923;48.154;11.536;2023-05-10T10:37:22;20.80;99.90
3816;DHT22;1923;48.154;11.536;2023-05-10T10:39:55;21.20;99.90
3816;DHT22;1923;48.154;11.536;2023-05-10T10:42:44;21.40;99.90
3816;DHT22;1923;48.154;11.536;2023-05-10T10:45:13;21.40;99.90
3816;DHT22;1923;48.154;11.536;2023-05-10T10:47:41;21.10;99.90
3816;DHT22;1923;48.154;11.536;2023-05-10T10:50:10;20.90;99.90
3816;DHT22;1923;48.154;11.536;2023-05-10T10:52:40;20.70;99.90
3816;DHT22;1923;48.154;11.536;2023-05-10T10:55:11;20.30;99.90
3816;DHT22;1923;48.154;11.536;2023-05-10T10:57:47;20.10;99.90
3816;DHT22;1923;48.154;11.536;2023-05-10T11:00:27;19.90;99.90
3816;DHT22;1923;48.154;11.536;2023-05-10T11:02:58;19.60;99.90
3816;DHT22;1923;48.154;11.536;2023-05-10T11:05:44;19.50;99.90
3816;DHT22;1923;48.154;11.536;2023-05-10T11:08:18;19.30;99.90
3816;DHT22;1923;48.154;11.536;2023-05-10T11:10:52;18.90;99.90
3816;DHT22;1923;48.154;11.536;2023-05-10T11:13:28;18.90;99.90
3816;DHT22;1923;48.154;11.536;2023-05-10T11:15:57;18.80;99.90
3816;DHT22;1923;48.154;11.536;2023-05-10T11:18:26;18.90;99.90
3816;DHT22;1923;48.154;11.536;2023-05-10T11:20:59;18.90;99.90
3816;DHT22;1923;48.154;11.536;2023-05-10T11:23:30;18.80;99.90
3816;DHT22;1923;48.154;11.536;2023-05-10T11:26:00;18.70;99.90
3816;DHT22;1923;48.154;11.536;2023-05-10T11:28:28;18.60;99.90
3816;DHT22;1923;48.154;11.536;2023-05-10T11:30:57;18.30;99.90
3816;DHT22;1923;48.154;11.536;2023-05-10T11:33:25;18.10;99.90
3816;DHT22;1923;48.154;11.536;2023-05-10T11:35:53;17.90;99.90
3816;DHT22;1923;48.154;11.536;2023-05-10T11:38:21;17.50;99.90
3816;DHT22;1923;48.154;11.536;2023-05-10T11:40:51;17.30;99.90
3816;DHT22;1923;48.154;11.536;2023-05-10T11:43:26;17.20;99.90
3816;DHT22;1923;48.154;11.536;2023-05-10T11:45:57;17.00;99.90
3816;DHT22;1923;48.154;11.536;2023-05-10T11:48:25;16.90;99.90
3816;DHT22;1923;48.154;11.536;2023-05-10T11:50:54;16.70;99.90
3816;DHT22;1923;48.154;11.536;2023-05-10T11:53:25;16.70;99.90
3816;DHT22;1923;48.154;11.536;2023-05-10T11:55:53;16.60;99.90
3816;DHT22;1923;48.154;11.536;2023-05-10T11:58:22;16.60;99.90
3816;DHT22;1923;48.154;11.536;2023-05-10T12:00:52;16.50;99.90
3816;DHT22;1923;48.154;11.536;2023-05-10T12:03:20;16.50;99.90
3816;DHT22;1923;48.154;11.536;2023-05-10T12:05:48;16.40;99.90
3816;DHT22;1923;48.154;11.536;2023-05-10T12:08:21;16.30;99.90
3816;DHT22;1923;48.154;11.536;2023-05-10T12:10:49;16.20;99.90
3816;DHT22;1923;48.154;11.536;2023-05-10T12:13:19;16.00;99.90
3816;DHT22;1923;48.154;11.536;2023-05-10T12:15:47;15.90;99.90
3816;DHT22;1923;48.154;11.536;2023-05-10T12:18:22;15.80;99.90
3816;DHT22;1923;48.154;11.536;2023-05-10T12:20:52;15.70;99.90
3816;DHT22;1923;48.154;11.536;2023-05-10T12:23:20;15.60;99.90
3816;DHT22;1923;48.154;11.536;2023-05-10T12:25:48;15.50;99.90
3816;DHT22;1923;48.154;11.536;2023-05-10T12:28:19;15.50;99.90
3816;DHT22;1923;48.154;11.536;2023-05-10T12:30:47;15.60;99.90
3816;DHT22;1923;48.154;11.536;2023-05-10T12:33:17;15.60;99.90
3816;DHT22;1923;48.154;11.536;2023-05-10T12:35:47;15.50;99.90
3816;DHT22;1923;48.154;11.536;2023-05-10T12:38:29;15.40;99.90
3816;DHT22;1923;48.154;11.536;2023-05-10T12:40:59;15.30;99.90
3816;DHT22;1923;48.154;11.536;2023-05-10T12:43:27;15.40;99.90
3816;DHT22;1923;48.154;11.536;2023-05-10T12:45:55;15.40;99.90
3816;DHT22;1923;48.154;11.536;2023-05-10T12:48:25;15.40;99.90
3816;DHT22;1923;48.154;11.536;2023-05-10T12:50:55;15.40;99.90
3816;DHT22;1923;48.154;11.536;2023-05-10T12:53:23;15.40;99.90
3816;DHT22;1923;48.154;11.536;2023-05-10T12:55:51;15.40;99.90
3816;DHT22;1923;48.154;11.536;2023-05-10T12:58:19;15.40;99.90
3816;DHT22;1923;48.154;11.536;2023-05-10T13:00:53;15.40;99.90
3816;DHT22;1923;48.154;11.536;2023-05-10T13:03:23;15.50;99.90
3816;DHT22;1923;48.154;11.536;2023-05-10T13:05:52;15.60;99.90
3816;DHT22;1923;48.154;11.536;2023-05-10T13:08:20;15.60;99.90
3816;DHT22;1923;48.154;11.536;2023-05-10T13:10:48;15.60;99.90
3816;DHT22;1923;48.154;11.536;2023-05-10T13:13:16;15.60;99.90
3816;DHT22;1923;48.154;11.536;2023-05-10T13:15:44;15.70;99.90
3816;DHT22;1923;48.154;11.536;2023-05-10T13:18:12;15.70;99.90
3816;DHT22;1923;48.154;11.536;2023-05-10T13:20:40;15.60;99.90
3816;DHT22;1923;48.154;11.536;2023-05-10T13:23:12;15.70;99.90
3816;DHT22;1923;48.154;11.536;2023-05-10T13:25:40;15.80;99.90
3816;DHT22;1923;48.154;11.536;2023-05-10T13:28:08;15.80;99.90
3816;DHT22;1923;48.154;11.536;2023-05-10T13:30:36;15.90;99.90
3816;DHT22;1923;48.154;11.536;2023-05-10T13:33:04;15.90;99.90
3816;DHT22;1923;48.154;11.536;2023-05-10T13:35:32;15.70;99.90
3816;DHT22;1923;48.154;11.536;2023-05-10T13:38:00;15.80;99.90
3816;DHT22;1923;48.154;11.536;2023-05-10T13:40:29;15.70;99.90
3816;DHT22;1923;48.154;11.536;2023-05-10T13:42:57;15.70;99.90
3816;DHT22;1923;48.154;11.536;2023-05-10T13:45:25;15.80;99.90
3816;DHT22;1923;48.154;11.536;2023-05-10T13:47:53;15.80;99.90
3816;DHT22;1923;48.154;11.536;2023-05-10T13:50:21;15.60;99.90
3816;DHT22;1923;48.154;11.536;2023-05-10T13:52:49;15.50;99.90
3816;DHT22;1923;48.154;11.536;2023-05-10T13:55:17;15.40;99.90
3816;DHT22;1923;48.154;11.536;2023-05-10T13:57:47;15.40;99.90
3816;DHT22;1923;48.154;11.536;2023-05-10T14:00:15;15.40;99.90
3816;DHT22;1923;48.154;11.536;2023-05-10T14:02:44;15.20;99.90
3816;DHT22;1923;48.154;11.536;2023-05-10T14:05:12;15.40;99.90
3816;DHT22;1923;48.154;11.536;2023-05-10T14:07:40;15.30;99.90
3816;DHT22;1923;48.154;11.536;2023-05-10T14:10:08;15.40;99.90
3816;DHT22;1923;48.154;11.536;2023-05-10T14:12:36;15.50;99.90
3816;DHT22;1923;48.154;11.536;2023-05-10T14:15:07;15.50;99.90
3816;DHT22;1923;48.154;11.536;2023-05-10T14:17:37;15.60;99.90
3816;DHT22;1923;48.154;11.536;2023-05-10T14:20:06;15.60;99.90
3816;DHT22;1923;48.154;11.536;2023-05-10T14:22:34;15.60;99.90
3816;DHT22;1923;48.154;11.536;2023-05-10T14:25:02;15.80;99.90
3816;DHT22;1923;48.154;11.536;2023-05-10T14:27:31;15.90;99.90
3816;DHT22;1923;48.154;11.536;2023-05-10T14:29:59;15.80;99.90
3816;DHT22;1923;48.154;11.536;2023-05-10T14:32:29;15.80;99.90
3816;DHT22;1923;48.154;11.536;2023-05-10T14:34:58;15.70;99.90
3816;DHT22;1923;48.154;11.536;2023-05-10T14:37:27;15.60;99.90
3816;DHT22;1923;48.154;11.536;2023-05-10T14:39:55;15.50;99.90
3816;DHT22;1923;48.154;11.536;2023-05-10T14:42:22;15.60;99.90
3816;DHT22;1923;48.154;11.536;2023-05-10T14:44:51;15.50;99.90
3816;DHT22;1923;48.154;11.536;2023-05-10T14:47:18;15.50;99.90
3816;DHT22;1923;48.154;11.536;2023-05-10T14:49:48;15.40;99.90
3816;DHT22;1923;48.154;11.536;2023-05-10T14:52:16;15.30;99.90
3816;DHT22;1923;48.154;11.536;2023-05-10T14:54:46;15.20;99.90
3816;DHT22;1923;48.154;11.536;2023-05-10T14:57:14;15.10;99.90
3816;DHT22;1923;48.154;11.536;2023-05-10T14:59:42;15.10;99.90
3816;DHT22;1923;48.154;11.536;2023-05-10T15:02:11;14.90;99.90
3816;DHT22;1923;48.154;11.536;2023-05-10T15:04:39;14.80;99.90
3816;DHT22;1923;48.154;11.536;2023-05-10T15:07:10;14.90;99.90
3816;DHT22;1923;48.154;11.536;2023-05-10T15:09:41;14.90;99.90
3816;DHT22;1923;48.154;11.536;2023-05-10T15:12:09;14.90;99.90
3816;DHT22;1923;48.154;11.536;2023-05-10T15:14:37;14.80;99.90
3816;DHT22;1923;48.154;11.536;2023-05-10T15:17:06;14.80;99.90
3816;DHT22;1923;48.154;11.536;2023-05-10T15:19:34;14.70;99.90
3816;DHT22;1923;48.154;11.536;2023-05-10T15:22:03;14.70;99.90
3816;DHT22;1923;48.154;11.536;2023-05-10T15:24:33;14.70;99.90
3816;DHT22;1923;48.154;11.536;2023-05-10T15:27:01;14.60;99.90
3816;DHT22;1923;48.154;11.536;2023-05-10T15:29:29;14.70;99.90
3816;DHT22;1923;48.154;11.536;2023-05-10T15:31:58;14.60;99.90
3816;DHT22;1923;48.154;11.536;2023-05-10T15:34:26;14.60;99.90
3816;DHT22;1923;48.154;11.536;2023-05-10T15:36:55;14.50;99.90
3816;DHT22;1923;48.154;11.536;2023-05-10T15:39:23;14.60;99.90
3816;DHT22;1923;48.154;11.536;2023-05-10T15:41:52;14.70;99.90
3816;DHT22;1923;48.154;11.536;2023-05-10T15:44:20;14.70;99.90
3816;DHT22;1923;48.154;11.536;2023-05-10T15:46:48;14.50;99.90
3816;DHT22;1923;48.154;11.536;2023-05-10T15:49:17;14.50;99.90
3816;DHT22;1923;48.154;11.536;2023-05-10T15:51:45;14.50;99.90
3816;DHT22;1923;48.154;11.536;2023-05-10T15:54:13;14.40;99.90
3816;DHT22;1923;48.154;11.536;2023-05-10T15:56:41;14.30;99.90
3816;DHT22;1923;48.154;11.536;2023-05-10T15:59:10;14.40;99.90
3816;DHT22;1923;48.154;11.536;2023-05-10T16:01:38;14.40;99.90